Monclova, Ohio
Current Conditions -  °F | °C
As of 7:52 PM on Wednesday 22 Oct 2014 (Local Time) from KTOL Reporting Station
Overcast Overcast  
Wind Chill: 44°   Ceiling: 3500
Heat Index: 48°   Visibility: 10mi
Dew Point: 40°   Wind: 9mph
Humidity: 74%   Direction: 290°WNW
Pressure: 30.27"   Gusts: NA
Location:  41.56°N, 83.73°W
Report Text: KTOL 222352Z 29008KT 10SM OVC035 09/04 A3027 RMK AO2 SLP256 T00890044 10128 20089 56003
Loading
Personal Weather Stations






























Interactive Weather Map
Tropical Storm Tracking
New forecast layout! Learn more

10-Day Weather Forecast

Advertisements
Track Severe Weather on mobile